Panna Maria, TX (78144)

1:05 PM CST on November 23, 2014 (GMT -0600)
Karnes County | Change Station
CLOSE
Current Station
Personal Weather Station
Location: Karnes City, TX
Elevation: 381 ft
Nearby Weather Stations

Elev 381 ft 28.88 °N, 97.86 °W | Updated 12 seconds ago

Clear
Clear
78.3 °F
Feels Like 79 °F
N
11.0
Wind Variable Wind from SW
Gusts 14.0 mph

Today
High -- | Low -- °F
--% Chance of Precip.
Yesterday
High -- | Low -- °F
Precip. -- in
7:01 AM 5:34 PM
New Moon, 2% visible
Pressure 29.64 in
Visibility 10.0 miles
Clouds Clear
Heat Index 79 °F
Dew Point 52 °F
Humidity 40%
Rainfall 0.00 in
Snow Depth Not available.
UV 12.1 out of 12
Pollen 3.80 out of 12
Air Quality Not available.
Flu Activity Not available.
METAR KPEZ 231855Z AUTO 22011KT 10SM CLR 27/07 A2964 RMK AO2 T02670072

More Conditions Fewer Conditions

Pressure 29.64 in
Visibility 10.0 miles
Clouds Clear
Heat Index 79 °F
Dew Point 52 °F
Humidity 40%
Rainfall 0.00 in
Snow Depth Not available.
UV 12.1 out of 12
Pollen 3.80 out of 12
Air Quality Not available.
Flu Activity Not available.
METAR KPEZ 231855Z AUTO 22011KT 10SM CLR 27/07 A2964 RMK AO2 T02670072

More Conditions Fewer Conditions

10-Day Weather Forecast

Almanac

Astronomy

Nov. 23, 2014 Rise Set
Actual Time
Civil Twilight
Nautical Twilight
Astronomical Twilight
Moon
Length of Visible Light
Length of Day
Tomorrow will be .
, % of the Moon is Illuminated

Today's Extremes

State Highs State Lows

Community

WunderPhotos

Upload Photos

1,773,135 photos uploaded!

WunderBlogs® & News

Nearby

Air Quality

  Air Quality AQ Index Pollutant
Not available.

Snow Depth

Station Depth Elevation

Earthquake Activity

City Distance Mag. Time & Date
Minimum magnitude displayed is 2.5.

Coastal Water Temperatures

Place Temperature

Nearby Weather Stations